createdAt,value
2023-03-28T00:05:00.549Z,99367.58
2023-03-28T00:10:06.124Z,99362.58
2023-03-28T00:15:10.128Z,99359.58
2023-03-28T00:20:14.707Z,99354.96
2023-03-28T00:25:18.597Z,99353.19
2023-03-28T00:30:22.214Z,99353.16
2023-03-28T00:35:26.101Z,99349.88
2023-03-28T00:40:31.201Z,99344.15
2023-03-28T00:45:34.813Z,99343.46
2023-03-28T00:50:41.212Z,99345.79
2023-03-28T00:55:50.233Z,99347.63
2023-03-28T01:00:56.204Z,99341.58
2023-03-28T01:06:02.155Z,99348.42
2023-03-28T01:11:06.716Z,99355.46
2023-03-28T01:16:12.898Z,99360.35
2023-03-28T01:21:57.162Z,99359.85
2023-03-28T01:27:28.836Z,99350.37
2023-03-28T01:33:06.172Z,99348.64
2023-03-28T01:38:14.480Z,99336.07
2023-03-28T01:43:20.652Z,99328.04
2023-03-28T01:48:30.718Z,99320.01
2023-03-28T01:53:43.856Z,99316.50
2023-03-28T01:59:01.918Z,99317.48
2023-03-28T02:04:20.632Z,99305.44
2023-03-28T02:09:27.411Z,99303.91
2023-03-28T02:14:37.776Z,99307.53
2023-03-28T02:19:50.607Z,99306.55
2023-03-28T02:24:54.207Z,99299.67
2023-03-28T02:29:58.246Z,99295.70
2023-03-28T02:35:04.660Z,99293.31
2023-03-28T02:40:17.049Z,99297.88
2023-03-28T02:45:32.754Z,99298.13
2023-03-28T02:50:50.302Z,99293.45
2023-03-28T02:56:09.690Z,99291.77
2023-03-28T03:01:14.860Z,99285.67
2023-03-28T03:06:18.569Z,99286.79
2023-03-28T03:11:21.875Z,99282.47
2023-03-28T03:16:25.541Z,99283.32
2023-03-28T03:21:29.107Z,99287.68
2023-03-28T03:26:33.037Z,99282.52
2023-03-28T03:31:37.229Z,99283.29
2023-03-28T03:36:40.887Z,99284.45
2023-03-28T03:41:44.394Z,99288.20
2023-03-28T03:46:47.844Z,99292.69
2023-03-28T03:51:51.441Z,99290.05
2023-03-28T03:56:54.910Z,99282.50
2023-03-28T04:01:58.496Z,99280.27
2023-03-28T04:07:02.689Z,99282.84
2023-03-28T04:12:07.161Z,99281.49
2023-03-28T04:17:13.845Z,99280.33
2023-03-28T04:22:18.692Z,99284.06
2023-03-28T04:27:25.963Z,99283.84
2023-03-28T04:32:29.507Z,99286.47
2023-03-28T04:37:33.004Z,99285.55
2023-03-28T04:42:37.866Z,99294.12
2023-03-28T04:47:41.409Z,99297.45
2023-03-28T04:52:44.984Z,99300.21
2023-03-28T04:57:48.399Z,99304.02
2023-03-28T05:03:01.969Z,99304.38
2023-03-28T05:08:05.868Z,99300.77
2023-03-28T05:13:09.195Z,99299.39
2023-03-28T05:18:12.900Z,99312.02
2023-03-28T05:23:16.510Z,99317.82
2023-03-28T05:28:21.261Z,99320.72
2023-03-28T05:33:24.669Z,99339.05
2023-03-28T05:38:30.402Z,99342.86
2023-03-28T05:43:33.752Z,99350.30
2023-03-28T05:48:37.265Z,99360.63
2023-03-28T05:53:40.783Z,99365.99
2023-03-28T05:58:44.405Z,99373.21
2023-03-28T06:03:48.133Z,99382.11
2023-03-28T06:08:51.529Z,99394.58
2023-03-28T06:13:55.249Z,99408.45
2023-03-28T06:19:10.599Z,99419.23
2023-03-28T06:24:20.916Z,99423.08
2023-03-28T06:29:24.435Z,99429.81
2023-03-28T06:34:27.850Z,99435.14
2023-03-28T06:39:31.873Z,99449.52
2023-03-28T06:44:35.604Z,99459.64
2023-03-28T06:49:39.216Z,99466.75
2023-03-28T06:54:42.733Z,99473.66
2023-03-28T06:59:46.245Z,99486.36
2023-03-28T07:04:49.765Z,99496.92
2023-03-28T07:09:54.928Z,99505.51
2023-03-28T07:14:58.333Z,99514.41
2023-03-28T07:20:02.189Z,99523.65
2023-03-28T07:25:08.354Z,99535.17
2023-03-28T07:30:12.568Z,99546.69
2023-03-28T07:35:15.875Z,99557.35
2023-03-28T07:40:19.395Z,99557.59
2023-03-28T07:45:22.805Z,99556.71
2023-03-28T07:50:26.453Z,99563.51
2023-03-28T07:55:32.653Z,99575.06
2023-03-28T08:00:38.576Z,99583.21
2023-03-28T08:05:43.577Z,99594.17
2023-03-28T08:10:51.666Z,99599.64
2023-03-28T08:15:57.216Z,99603.01
2023-03-28T08:21:04.312Z,99613.23
2023-03-28T08:26:08.345Z,99629.52
2023-03-28T08:31:14.732Z,99633.08
2023-03-28T08:36:19.177Z,99634.61
2023-03-28T08:41:44.584Z,99645.90
2023-03-28T08:46:54.929Z,99660.30
2023-03-28T08:52:01.884Z,99659.25
2023-03-28T08:57:08.356Z,99675.45
2023-03-28T09:02:24.071Z,99687.56
2023-03-28T09:07:35.444Z,99698.42
2023-03-28T09:13:10.602Z,99700.77
2023-03-28T09:18:37.464Z,99722.45
2023-03-28T09:24:06.481Z,99732.57
2023-03-28T09:29:25.460Z,99746.50
2023-03-28T09:34:37.982Z,99745.43
2023-03-28T09:39:49.792Z,99762.13
2023-03-28T09:45:18.351Z,99764.38
2023-03-28T09:50:22.217Z,99769.89
2023-03-28T09:55:29.965Z,99788.76
2023-03-28T10:00:46.861Z,99784.36
2023-03-28T10:05:54.060Z,99793.89
2023-03-28T10:11:02.284Z,99786.23
2023-03-28T10:16:06.507Z,99803.93
2023-03-28T10:21:14.741Z,99803.85
2023-03-28T10:26:24.003Z,99808.10
2023-03-28T10:31:30.774Z,99803.74
2023-03-28T10:36:43.034Z,99802.65
2023-03-28T10:41:54.320Z,99814.73
2023-03-28T10:47:05.502Z,99830.45
2023-03-28T10:52:23.264Z,99837.97
2023-03-28T10:57:51.777Z,99831.05
2023-03-28T11:02:55.166Z,99848.48
2023-03-28T11:08:04.839Z,99864.85
2023-03-28T11:13:28.923Z,99850.45
2023-03-28T11:18:47.599Z,99855.74
2023-03-28T11:24:09.336Z,99880.95
2023-03-28T11:29:42.626Z,99871.36
2023-03-28T11:35:00.098Z,99874.65
2023-03-28T11:40:15.283Z,99879.00
2023-03-28T11:45:50.952Z,99891.85
2023-03-28T11:51:11.159Z,99867.46
2023-03-28T11:56:29.313Z,99884.14
2023-03-28T12:01:38.407Z,99895.55
2023-03-28T12:07:02.199Z,99906.42
2023-03-28T12:12:12.016Z,99908.34
2023-03-28T12:17:21.065Z,99901.39
2023-03-28T12:22:45.058Z,99917.38
2023-03-28T12:27:57.610Z,99929.55
2023-03-28T12:33:16.599Z,99927.79
2023-03-28T12:38:36.255Z,99929.35
2023-03-28T12:43:47.602Z,99937.98
2023-03-28T12:49:26.397Z,99964.01
2023-03-28T12:54:33.611Z,99988.98
2023-03-28T12:59:40.107Z,99986.66
2023-03-28T13:04:47.263Z,99976.05
2023-03-28T13:10:08.121Z,99960.58
2023-03-28T13:15:14.297Z,99961.77
2023-03-28T13:20:18.020Z,99970.11
2023-03-28T13:25:58.480Z,99975.96
2023-03-28T13:31:08.252Z,100034.27
2023-03-28T13:36:14.151Z,100021.09
2023-03-28T13:41:42.927Z,100032.33
2023-03-28T13:46:49.666Z,100036.66
2023-03-28T13:52:05.048Z,100032.00
2023-03-28T13:57:16.648Z,100022.19
2023-03-28T14:02:30.360Z,100016.58
2023-03-28T14:07:33.789Z,100020.62
2023-03-28T14:12:38.536Z,100031.20
2023-03-28T14:17:41.993Z,100040.69
2023-03-28T14:22:59.856Z,100044.80
2023-03-28T14:28:08.951Z,100039.08
2023-03-28T14:33:14.377Z,100050.08
2023-03-28T14:38:29.306Z,100054.34
2023-03-28T14:43:32.708Z,100069.91
2023-03-28T14:48:38.366Z,100063.88
2023-03-28T14:53:45.167Z,100074.95
2023-03-28T14:58:50.378Z,100075.95
2023-03-28T15:04:08.344Z,100109.61
2023-03-28T15:09:25.916Z,100092.08
2023-03-28T15:14:42.769Z,100101.45
2023-03-28T15:19:49.332Z,100129.73
2023-03-28T15:24:52.747Z,100120.82
2023-03-28T15:29:56.462Z,100125.89
2023-03-28T15:35:05.408Z,100131.73
2023-03-28T15:40:29.282Z,100126.67
2023-03-28T15:45:41.116Z,100135.42
2023-03-28T15:50:50.769Z,100149.08
2023-03-28T15:55:54.187Z,100144.96
2023-03-28T16:01:20.055Z,100158.45
2023-03-28T16:06:32.372Z,100166.44
2023-03-28T16:11:37.393Z,100167.35
2023-03-28T16:16:40.874Z,100164.14
2023-03-28T16:21:44.322Z,100159.25
2023-03-28T16:26:48.773Z,100166.52
2023-03-28T16:31:52.080Z,100167.10
2023-03-28T16:36:57.870Z,100173.70
2023-03-28T16:42:01.860Z,100189.34
2023-03-28T16:47:05.995Z,100188.23
2023-03-28T16:52:09.298Z,100188.33
2023-03-28T16:57:13.014Z,100197.58
2023-03-28T17:02:16.653Z,100204.96
2023-03-28T17:07:20.052Z,100200.80
2023-03-28T17:12:24.391Z,100201.48
2023-03-28T17:17:27.820Z,100198.79
2023-03-28T17:22:31.323Z,100209.38
2023-03-28T17:27:34.632Z,100212.53
2023-03-28T17:32:38.088Z,100209.12
2023-03-28T17:37:41.971Z,100209.79
2023-03-28T17:42:45.177Z,100216.36
2023-03-28T17:47:48.833Z,100223.42
2023-03-28T17:52:52.102Z,100232.64
2023-03-28T17:57:55.574Z,100230.94
2023-03-28T18:02:59.007Z,100230.30
2023-03-28T18:08:02.441Z,100231.53
2023-03-28T18:13:05.667Z,100241.95
2023-03-28T18:18:09.791Z,100243.56
2023-03-28T18:23:13.097Z,100240.84
2023-03-28T18:28:16.476Z,100242.23
2023-03-28T18:33:22.343Z,100239.48
2023-03-28T18:38:26.101Z,100240.36
2023-03-28T18:43:29.513Z,100236.16
2023-03-28T18:48:32.748Z,100236.98
2023-03-28T18:53:38.012Z,100239.30
2023-03-28T18:58:41.402Z,100243.86
2023-03-28T19:03:45.155Z,100243.35
2023-03-28T19:08:48.829Z,100235.95
2023-03-28T19:13:52.152Z,100239.37
2023-03-28T19:18:55.551Z,100239.98
2023-03-28T19:23:58.970Z,100238.38
2023-03-28T19:29:02.274Z,100242.11
2023-03-28T19:34:05.947Z,100236.70
2023-03-28T19:39:09.514Z,100237.26
2023-03-28T19:44:12.852Z,100237.80
2023-03-28T19:49:17.563Z,100238.20
2023-03-28T19:54:20.981Z,100241.84
2023-03-28T19:59:24.293Z,100244.39
2023-03-28T20:04:28.452Z,100249.58
2023-03-28T20:09:33.664Z,100250.48
2023-03-28T20:14:38.730Z,100250.80
2023-03-28T20:19:42.348Z,100245.17
2023-03-28T20:24:48.942Z,100244.94
2023-03-28T20:29:52.464Z,100243.39
2023-03-28T20:34:56.065Z,100242.93
2023-03-28T20:40:05.519Z,100242.69
2023-03-28T20:45:14.258Z,100244.23
2023-03-28T20:50:17.587Z,100239.44
2023-03-28T20:55:21.496Z,100243.83
2023-03-28T21:00:25.785Z,100240.27
2023-03-28T21:05:30.364Z,100243.98
2023-03-28T21:10:33.785Z,100247.45
2023-03-28T21:15:37.517Z,100252.23
2023-03-28T21:20:40.714Z,100255.09
2023-03-28T21:25:45.664Z,100260.50
2023-03-28T21:30:59.791Z,100264.20
2023-03-28T21:36:04.495Z,100270.83
2023-03-28T21:41:08.911Z,100266.87
2023-03-28T21:46:12.969Z,100267.02
2023-03-28T21:51:17.527Z,100261.30
2023-03-28T21:56:21.529Z,100261.45
2023-03-28T22:01:24.836Z,100255.37
2023-03-28T22:06:28.530Z,100255.19
2023-03-28T22:11:32.968Z,100249.84
2023-03-28T22:16:39.080Z,100247.73
2023-03-28T22:21:42.469Z,100245.81
2023-03-28T22:26:46.590Z,100246.73
2023-03-28T22:31:49.977Z,100243.96
2023-03-28T22:36:55.163Z,100238.23
2023-03-28T22:41:58.671Z,100241.02
2023-03-28T22:47:04.966Z,100246.09
2023-03-28T22:52:08.570Z,100249.16
2023-03-28T22:57:11.960Z,100250.38
2023-03-28T23:02:15.701Z,100255.39
2023-03-28T23:07:19.325Z,100256.31
2023-03-28T23:12:22.834Z,100261.30
2023-03-28T23:17:29.466Z,100260.05
2023-03-28T23:22:32.945Z,100256.55
2023-03-28T23:27:36.361Z,100255.84
2023-03-28T23:32:39.881Z,100256.13
2023-03-28T23:37:43.385Z,100258.33
2023-03-28T23:42:47.100Z,100254.55
2023-03-28T23:47:51.884Z,100257.41
2023-03-28T23:52:55.565Z,100265.80
2023-03-28T23:58:01.996Z,100271.02
